KTVF/TVF METAR and TAF weather

Enter ICAO airport designator
Station Type Date Time Source
KTVF METAR 2019/06/18 23:56 UTC NOAA

KTVF 182356Z AUTO 05006KT 10SM CLR 21/07 A2994 RMK AO2 SLP141 T02110067 10228 20206 58006


Station Type Date Time Source
KTVF Decoded METAR 2019/06/18 23:56 UTC NOAA

Thief River Falls, Thief River Falls Regional Airport, MN, United States (KTVF) 48-04N 096-11W
Jun 18, 2019 - 07:56 PM EDT / 2019.06.18 2356 UTC
Wind: from the NE (050 degrees) at 7 MPH (6 KT):0
Visibility: 10 mile(s):0
Sky conditions: clear
Temperature: 70.0 F (21.1 C)
Dew Point: 44.1 F (6.7 C)
Relative Humidity: 39%
Pressure (altimeter): 29.94 in. Hg (1013 hPa)
Pressure tendency: 0.02 inches (0.6 hPa) lower than three hours ago
ob: KTVF 182356Z AUTO 05006KT 10SM CLR 21/07 A2994 RMK AO2 SLP141 T02110067 10228 20206 58006
cycle: 0

Station Type Date Time Source
KTVF TAF 2019/06/18 22:06 UTC NOAA

TAF
AMD KTVF 182204Z 1822/1918 06007KT P6SM SCT060
FM191300 VRB04KT P6SM SCT250

Example: see airport list